createdAt,value
2019-01-29T00:00:26.049Z,98.70
2019-01-29T00:02:54.452Z,98.60
2019-01-29T00:05:22.884Z,98.60
2019-01-29T00:07:51.299Z,98.30
2019-01-29T00:10:19.720Z,98.10
2019-01-29T00:12:48.133Z,97.90
2019-01-29T00:15:16.557Z,97.50
2019-01-29T00:17:44.983Z,97.40
2019-01-29T00:20:13.763Z,97.30
2019-01-29T00:22:42.490Z,96.70
2019-01-29T00:25:14.417Z,96.70
2019-01-29T00:27:42.829Z,96.40
2019-01-29T00:30:15.509Z,96.30
2019-01-29T00:32:44.142Z,96.20
2019-01-29T00:35:12.664Z,96.10
2019-01-29T00:37:41.092Z,96.00
2019-01-29T00:40:14.758Z,96.00
2019-01-29T00:42:43.194Z,96.00
2019-01-29T00:45:14.146Z,95.70
2019-01-29T00:47:42.577Z,95.90
2019-01-29T00:50:13.289Z,95.80
2019-01-29T00:52:42.432Z,95.70
2019-01-29T00:55:13.556Z,96.10
2019-01-29T00:57:42.041Z,96.00
2019-01-29T01:00:24.962Z,95.70
2019-01-29T01:02:53.421Z,95.50
2019-01-29T01:05:21.899Z,95.50
2019-01-29T01:07:50.739Z,95.40
2019-01-29T01:10:20.896Z,95.40
2019-01-29T01:12:49.316Z,95.40
2019-01-29T01:15:17.868Z,95.50
2019-01-29T01:17:46.606Z,95.70
2019-01-29T01:20:17.065Z,95.70
2019-01-29T01:22:51.157Z,95.80
2019-01-29T01:25:16.327Z,95.80
2019-01-29T01:27:44.929Z,95.80
2019-01-29T01:30:15.986Z,96.00
2019-01-29T01:32:44.727Z,95.90
2019-01-29T01:35:13.313Z,96.10
2019-01-29T01:37:42.280Z,96.40
2019-01-29T01:40:16.597Z,96.40
2019-01-29T01:42:45.023Z,96.40
2019-01-29T01:45:13.564Z,96.30
2019-01-29T01:47:41.984Z,96.30
2019-01-29T01:50:12.797Z,96.30
2019-01-29T01:52:41.437Z,96.40
2019-01-29T01:55:12.349Z,96.30
2019-01-29T01:57:40.755Z,96.40
2019-01-29T02:00:15.044Z,96.20
2019-01-29T02:02:43.521Z,96.00
2019-01-29T02:05:12.010Z,96.00
2019-01-29T02:07:40.425Z,96.10
2019-01-29T02:10:11.928Z,96.10
2019-01-29T02:12:40.356Z,96.20
2019-01-29T02:15:10.817Z,96.00
2019-01-29T02:17:39.453Z,95.70
2019-01-29T02:20:13.654Z,95.80
2019-01-29T02:22:42.318Z,95.60
2019-01-29T02:25:10.889Z,95.70
2019-01-29T02:27:39.316Z,95.80
2019-01-29T02:30:11.316Z,95.60
2019-01-29T02:32:39.981Z,95.50
2019-01-29T02:35:08.502Z,95.60
2019-01-29T02:37:36.921Z,95.60
2019-01-29T02:40:08.438Z,95.40
2019-01-29T02:42:36.840Z,95.60
2019-01-29T02:45:08.374Z,95.70
2019-01-29T02:47:36.782Z,95.80
2019-01-29T02:50:07.771Z,95.70
2019-01-29T02:52:36.432Z,95.70
2019-01-29T02:55:07.117Z,95.60
2019-01-29T02:57:35.802Z,95.50
2019-01-29T03:00:16.070Z,95.70
2019-01-29T03:02:44.499Z,96.10
2019-01-29T03:05:14.768Z,96.30
2019-01-29T03:07:43.193Z,96.30
2019-01-29T03:10:14.778Z,96.50
2019-01-29T03:12:43.192Z,96.60
2019-01-29T03:15:14.922Z,96.60
2019-01-29T03:17:43.402Z,96.50
2019-01-29T03:20:13.761Z,96.40
2019-01-29T03:22:42.315Z,96.40
2019-01-29T03:25:11.762Z,96.10
2019-01-29T03:27:40.258Z,96.10
2019-01-29T03:30:12.034Z,96.00
2019-01-29T03:32:40.458Z,95.90
2019-01-29T03:35:09.507Z,95.90
2019-01-29T03:37:37.929Z,95.80
2019-01-29T03:40:09.486Z,95.80
2019-01-29T03:42:37.910Z,95.60
2019-01-29T03:45:09.909Z,95.60
2019-01-29T03:47:38.577Z,95.60
2019-01-29T03:50:09.654Z,95.50
2019-01-29T03:52:38.083Z,95.60
2019-01-29T03:55:08.098Z,95.60
2019-01-29T03:57:36.518Z,95.50
2019-01-29T04:00:08.043Z,95.50
2019-01-29T04:02:36.759Z,95.50
2019-01-29T04:05:06.197Z,95.40
2019-01-29T04:07:34.698Z,95.60
2019-01-29T04:10:03.357Z,95.50
2019-01-29T04:12:31.776Z,95.40
2019-01-29T04:15:00.280Z,95.40
2019-01-29T04:17:28.795Z,95.50
2019-01-29T04:19:57.426Z,95.50
2019-01-29T04:22:26.139Z,95.40
2019-01-29T04:24:54.803Z,95.30
2019-01-29T04:27:23.496Z,95.50
2019-01-29T04:29:51.948Z,95.50
2019-01-29T04:32:20.362Z,95.30
2019-01-29T04:34:48.812Z,95.40
2019-01-29T04:37:17.500Z,95.50
2019-01-29T04:39:46.203Z,95.40
2019-01-29T04:42:14.861Z,95.40
2019-01-29T04:44:43.558Z,95.40
2019-01-29T04:47:12.226Z,95.60
2019-01-29T04:49:40.646Z,95.60
2019-01-29T04:52:09.368Z,95.60
2019-01-29T04:54:37.812Z,95.70
2019-01-29T04:57:06.478Z,95.60
2019-01-29T04:59:34.943Z,95.80
2019-01-29T05:02:03.414Z,95.60
2019-01-29T05:04:32.106Z,95.50
2019-01-29T05:07:00.803Z,95.50
2019-01-29T05:09:29.470Z,95.40
2019-01-29T05:11:57.878Z,95.20
2019-01-29T05:14:26.554Z,95.20
2019-01-29T05:16:55.218Z,95.30
2019-01-29T05:19:23.931Z,95.30
2019-01-29T05:21:52.381Z,95.30
2019-01-29T05:24:20.815Z,95.30
2019-01-29T05:26:49.268Z,95.50
2019-01-29T05:29:17.686Z,95.40
2019-01-29T05:31:46.097Z,95.30
2019-01-29T05:34:14.526Z,95.30
2019-01-29T05:36:43.183Z,95.20
2019-01-29T05:39:11.608Z,95.40
2019-01-29T05:41:40.275Z,95.20
2019-01-29T05:44:08.765Z,95.30
2019-01-29T05:46:37.418Z,95.50
2019-01-29T05:49:05.908Z,95.60
2019-01-29T05:51:34.633Z,95.60
2019-01-29T05:54:03.083Z,95.50
2019-01-29T05:56:31.745Z,95.50
2019-01-29T05:59:00.154Z,95.40
2019-01-29T06:01:28.578Z,95.40
2019-01-29T06:03:56.990Z,95.40
2019-01-29T06:06:25.422Z,95.40
2019-01-29T06:08:53.834Z,95.40
2019-01-29T06:11:22.263Z,95.40
2019-01-29T06:13:50.669Z,95.40
2019-01-29T06:16:19.133Z,95.10
2019-01-29T06:18:47.574Z,94.90
2019-01-29T06:21:16.002Z,94.90
2019-01-29T06:23:44.417Z,95.00
2019-01-29T06:26:12.837Z,94.70
2019-01-29T06:28:41.245Z,94.70
2019-01-29T06:31:09.891Z,94.60
2019-01-29T06:33:38.587Z,94.60
2019-01-29T06:36:07.044Z,94.60
2019-01-29T06:38:35.710Z,94.80
2019-01-29T06:41:04.570Z,94.70
2019-01-29T06:43:33.279Z,94.70
2019-01-29T06:46:01.701Z,94.70
2019-01-29T06:48:30.118Z,94.90
2019-01-29T06:50:58.802Z,94.90
2019-01-29T06:53:27.240Z,94.70
2019-01-29T06:55:55.653Z,94.70
2019-01-29T06:58:24.082Z,94.70
2019-01-29T07:00:52.493Z,94.60
2019-01-29T07:03:21.174Z,94.40
2019-01-29T07:05:49.589Z,94.50
2019-01-29T07:08:18.267Z,94.10
2019-01-29T07:10:46.685Z,94.40
2019-01-29T07:13:15.357Z,94.30
2019-01-29T07:15:57.194Z,94.10
2019-01-29T07:18:30.170Z,94.10
2019-01-29T07:20:58.635Z,94.10
2019-01-29T07:23:27.337Z,94.10
2019-01-29T07:25:55.831Z,94.00
2019-01-29T07:28:24.250Z,94.10
2019-01-29T07:30:52.767Z,94.00
2019-01-29T07:33:21.419Z,94.10
2019-01-29T07:35:50.149Z,94.00
2019-01-29T07:38:18.619Z,93.80
2019-01-29T07:40:47.300Z,93.80
2019-01-29T07:43:16.042Z,93.70
2019-01-29T07:45:44.674Z,93.50
2019-01-29T07:48:13.248Z,93.30
2019-01-29T07:50:42.105Z,93.20
2019-01-29T07:53:11.881Z,93.00
2019-01-29T07:55:40.562Z,92.80
2019-01-29T07:58:09.250Z,92.70
2019-01-29T08:00:37.765Z,92.60
2019-01-29T08:03:06.298Z,92.60
2019-01-29T08:05:34.992Z,92.30
2019-01-29T08:08:03.781Z,92.10
2019-01-29T08:10:32.276Z,92.30
2019-01-29T08:13:00.698Z,92.30
2019-01-29T08:15:29.108Z,92.60
2019-01-29T08:17:57.811Z,92.90
2019-01-29T08:20:26.624Z,92.80
2019-01-29T08:22:55.082Z,93.10
2019-01-29T08:25:23.505Z,92.90
2019-01-29T08:27:51.933Z,92.70
2019-01-29T08:30:20.720Z,92.30
2019-01-29T08:32:49.175Z,92.10
2019-01-29T08:35:18.541Z,92.20
2019-01-29T08:37:47.396Z,91.50
2019-01-29T08:40:16.949Z,90.90
2019-01-29T08:42:45.427Z,90.70
2019-01-29T08:45:20.670Z,90.50
2019-01-29T08:47:49.190Z,90.50
2019-01-29T08:50:25.710Z,90.30
2019-01-29T08:52:54.356Z,90.00
2019-01-29T08:55:22.963Z,90.90
2019-01-29T08:57:51.370Z,91.80
2019-01-29T09:00:21.235Z,92.30
2019-01-29T09:02:50.074Z,92.30
2019-01-29T09:05:18.561Z,91.10
2019-01-29T09:07:47.290Z,90.20
2019-01-29T09:10:18.833Z,90.00
2019-01-29T09:12:47.521Z,87.70
2019-01-29T09:15:20.623Z,88.50
2019-01-29T09:17:49.858Z,89.50
2019-01-29T09:20:20.421Z,90.60
2019-01-29T09:22:48.944Z,91.10
2019-01-29T09:25:20.860Z,91.60
2019-01-29T09:27:47.650Z,92.00
2019-01-29T09:30:17.734Z,91.40
2019-01-29T09:32:46.586Z,90.10
2019-01-29T09:35:15.026Z,90.40
2019-01-29T09:37:43.459Z,90.40
2019-01-29T09:40:14.812Z,90.20
2019-01-29T09:42:43.235Z,90.20
2019-01-29T09:45:14.495Z,91.00
2019-01-29T09:47:42.948Z,91.10
2019-01-29T09:50:14.495Z,91.00
2019-01-29T09:52:43.196Z,90.90
2019-01-29T09:55:14.732Z,90.80
2019-01-29T09:57:43.464Z,90.40
2019-01-29T10:00:17.397Z,90.40
2019-01-29T10:02:45.860Z,90.40
2019-01-29T10:05:14.675Z,90.20
2019-01-29T10:07:43.624Z,90.50
2019-01-29T10:10:13.105Z,90.20
2019-01-29T10:12:41.606Z,90.40
2019-01-29T10:15:13.138Z,90.30
2019-01-29T10:17:41.890Z,89.00
2019-01-29T10:20:10.483Z,89.00
2019-01-29T10:22:39.211Z,88.80
2019-01-29T10:25:11.132Z,86.60
2019-01-29T10:27:39.580Z,84.50
2019-01-29T10:30:11.342Z,83.40
2019-01-29T10:32:39.774Z,82.60
2019-01-29T10:35:14.236Z,81.00
2019-01-29T10:37:42.667Z,80.70
2019-01-29T10:40:16.415Z,79.60
2019-01-29T10:42:44.922Z,79.80
2019-01-29T10:45:18.034Z,79.10
2019-01-29T10:47:46.471Z,76.70
2019-01-29T10:50:19.934Z,75.30
2019-01-29T10:52:48.862Z,74.00
2019-01-29T10:55:17.662Z,69.50
2019-01-29T10:57:46.424Z,69.10
2019-01-29T11:00:24.209Z,71.80
2019-01-29T11:02:52.983Z,73.40
2019-01-29T11:05:24.103Z,72.40
2019-01-29T11:07:52.603Z,69.20
2019-01-29T11:10:21.651Z,70.30
2019-01-29T11:12:50.169Z,68.60
2019-01-29T11:15:24.760Z,66.60
2019-01-29T11:17:53.612Z,66.90
2019-01-29T11:20:22.574Z,65.00
2019-01-29T11:22:51.067Z,64.00
2019-01-29T11:25:24.847Z,62.90
2019-01-29T11:27:53.265Z,64.70
2019-01-29T11:30:24.207Z,63.00
2019-01-29T11:32:53.144Z,62.50
2019-01-29T11:35:21.685Z,61.90
2019-01-29T11:37:50.499Z,61.10
2019-01-29T11:40:21.967Z,62.20
2019-01-29T11:42:50.631Z,61.40
2019-01-29T11:45:24.954Z,57.80
2019-01-29T11:47:53.368Z,57.50
2019-01-29T11:50:21.848Z,55.70
2019-01-29T11:52:50.566Z,55.10
2019-01-29T11:55:27.970Z,57.30
2019-01-29T11:57:53.833Z,57.20
2019-01-29T12:00:35.582Z,57.20
2019-01-29T12:03:04.697Z,53.90
2019-01-29T12:05:33.225Z,55.90
2019-01-29T12:08:01.980Z,56.20
2019-01-29T12:10:30.470Z,54.70
2019-01-29T12:12:59.256Z,55.30
2019-01-29T12:15:28.062Z,55.00
2019-01-29T12:17:56.544Z,53.70
2019-01-29T12:20:25.267Z,51.40
2019-01-29T12:22:53.964Z,48.80
2019-01-29T12:25:22.684Z,44.80
2019-01-29T12:27:51.146Z,40.40
2019-01-29T12:30:21.662Z,37.50
2019-01-29T12:32:51.260Z,34.20
2019-01-29T12:35:20.121Z,33.60
2019-01-29T12:37:48.858Z,33.30
2019-01-29T12:40:17.470Z,31.80
2019-01-29T12:42:46.199Z,33.20
2019-01-29T12:45:19.346Z,31.70
2019-01-29T12:47:48.407Z,31.00
2019-01-29T12:50:20.080Z,30.90
2019-01-29T12:52:52.839Z,33.00
2019-01-29T12:55:21.278Z,32.50
2019-01-29T12:57:49.765Z,31.90
2019-01-29T13:00:19.735Z,31.70
2019-01-29T13:02:48.233Z,30.30
2019-01-29T13:05:16.820Z,30.10
2019-01-29T13:07:45.485Z,29.30
2019-01-29T13:10:22.577Z,29.80
2019-01-29T13:12:51.008Z,28.90
2019-01-29T13:15:30.594Z,29.30
2019-01-29T13:18:01.183Z,30.60
2019-01-29T13:20:29.836Z,29.70
2019-01-29T13:22:58.631Z,29.00
2019-01-29T13:25:27.194Z,25.90
2019-01-29T13:27:55.711Z,27.60
2019-01-29T13:30:34.732Z,27.10
2019-01-29T13:33:04.803Z,24.40
2019-01-29T13:35:35.150Z,24.30
2019-01-29T13:38:04.885Z,24.00
2019-01-29T13:40:33.320Z,24.70
2019-01-29T13:43:02.060Z,24.60
2019-01-29T13:45:30.762Z,24.40
2019-01-29T13:47:59.227Z,25.50
2019-01-29T13:50:33.664Z,26.00
2019-01-29T13:53:02.485Z,27.30
2019-01-29T13:55:30.928Z,29.50
2019-01-29T13:57:59.421Z,29.40
2019-01-29T14:00:30.420Z,30.00
2019-01-29T14:02:59.208Z,29.20
2019-01-29T14:05:27.886Z,30.70
2019-01-29T14:07:56.354Z,31.10
2019-01-29T14:10:24.798Z,32.10
2019-01-29T14:12:53.377Z,33.90
2019-01-29T14:15:24.362Z,35.30
2019-01-29T14:17:52.810Z,33.70
2019-01-29T14:20:21.354Z,33.50
2019-01-29T14:22:49.826Z,35.70
2019-01-29T14:25:18.243Z,33.00
2019-01-29T14:27:46.662Z,36.00
2019-01-29T14:30:18.362Z,37.60
2019-01-29T14:32:47.042Z,34.20
2019-01-29T14:35:15.812Z,31.90
2019-01-29T14:37:59.504Z,30.00
2019-01-29T14:40:28.101Z,30.90
2019-01-29T14:42:56.602Z,30.30
2019-01-29T14:45:26.987Z,29.90
2019-01-29T14:47:55.873Z,29.80
2019-01-29T14:50:25.426Z,31.20
2019-01-29T14:52:53.883Z,31.70
2019-01-29T14:55:22.460Z,32.10
2019-01-29T14:57:50.870Z,33.30
2019-01-29T15:00:31.811Z,32.80
2019-01-29T15:03:00.283Z,34.20
2019-01-29T15:05:28.767Z,34.70
2019-01-29T15:07:57.292Z,34.80
2019-01-29T15:10:28.582Z,37.80
2019-01-29T15:12:57.149Z,37.20
2019-01-29T15:15:28.021Z,37.50
2019-01-29T15:18:14.003Z,40.10
2019-01-29T15:20:42.435Z,41.20
2019-01-29T15:23:10.893Z,42.20
2019-01-29T15:25:39.327Z,40.90
2019-01-29T15:28:07.788Z,41.90
2019-01-29T15:30:36.366Z,43.70
2019-01-29T15:33:05.113Z,44.10
2019-01-29T15:35:33.773Z,44.90
2019-01-29T15:38:02.204Z,45.10
2019-01-29T15:40:30.870Z,46.60
2019-01-29T15:42:59.370Z,46.30
2019-01-29T15:45:28.647Z,48.20
2019-01-29T15:47:57.152Z,48.70
2019-01-29T15:50:27.894Z,49.90
2019-01-29T15:52:56.386Z,50.20
2019-01-29T15:55:24.962Z,50.70
2019-01-29T15:57:53.458Z,51.80
2019-01-29T16:00:27.896Z,54.40
2019-01-29T16:02:56.327Z,56.00
2019-01-29T16:05:27.464Z,57.60
2019-01-29T16:07:56.052Z,60.40
2019-01-29T16:10:27.702Z,65.30
2019-01-29T16:12:56.114Z,70.50
2019-01-29T16:15:26.451Z,75.10
2019-01-29T16:17:55.007Z,79.30
2019-01-29T16:20:24.634Z,80.80
2019-01-29T16:22:53.123Z,82.40
2019-01-29T16:25:32.278Z,83.10
2019-01-29T16:28:01.042Z,84.50
2019-01-29T16:30:30.944Z,85.40
2019-01-29T16:32:59.389Z,86.30
2019-01-29T16:35:39.811Z,86.10
2019-01-29T16:38:09.068Z,86.70
2019-01-29T16:40:40.566Z,87.60
2019-01-29T16:43:09.140Z,88.60
2019-01-29T16:45:38.158Z,88.80
2019-01-29T16:48:08.326Z,88.50
2019-01-29T16:50:37.183Z,88.40
2019-01-29T16:53:07.999Z,89.30
2019-01-29T16:55:36.902Z,89.40
2019-01-29T16:58:06.670Z,90.00
2019-01-29T17:00:39.903Z,90.30
2019-01-29T17:03:08.839Z,90.50
2019-01-29T17:05:38.100Z,90.90
2019-01-29T17:08:06.853Z,90.80
2019-01-29T17:10:35.546Z,91.00
2019-01-29T17:13:04.722Z,91.00
2019-01-29T17:15:37.874Z,91.10
2019-01-29T17:18:09.157Z,91.30
2019-01-29T17:20:45.633Z,91.00
2019-01-29T17:23:14.319Z,91.00
2019-01-29T17:25:43.409Z,90.80
2019-01-29T17:28:12.048Z,90.60
2019-01-29T17:30:43.084Z,90.50
2019-01-29T17:33:13.837Z,90.80
2019-01-29T17:35:42.828Z,90.70
2019-01-29T17:38:11.696Z,90.80
2019-01-29T17:40:40.466Z,90.90
2019-01-29T17:43:09.930Z,91.10
2019-01-29T17:45:44.022Z,91.20
2019-01-29T17:48:12.896Z,91.10
2019-01-29T17:50:43.448Z,91.40
2019-01-29T17:53:12.558Z,91.60
2019-01-29T17:55:42.632Z,91.50
2019-01-29T17:58:12.044Z,91.80
2019-01-29T18:00:42.475Z,92.00
2019-01-29T18:03:11.427Z,91.90
2019-01-29T18:05:40.828Z,92.10
2019-01-29T18:08:10.140Z,92.10
2019-01-29T18:10:38.852Z,92.20
2019-01-29T18:13:07.678Z,92.20
2019-01-29T18:15:36.888Z,92.10
2019-01-29T18:18:06.010Z,92.10
2019-01-29T18:20:34.739Z,92.00
2019-01-29T18:23:05.852Z,92.00
2019-01-29T18:25:34.383Z,92.00
2019-01-29T18:28:03.130Z,91.90
2019-01-29T18:30:34.166Z,92.10
2019-01-29T18:33:07.527Z,92.00
2019-01-29T18:35:36.427Z,91.90
2019-01-29T18:38:05.473Z,91.80
2019-01-29T18:40:39.682Z,92.00
2019-01-29T18:43:08.831Z,92.20
2019-01-29T18:45:37.879Z,92.10
2019-01-29T18:48:06.947Z,92.20
2019-01-29T18:50:35.817Z,92.30
2019-01-29T18:53:05.346Z,92.60
2019-01-29T18:55:34.627Z,92.60
2019-01-29T18:58:11.538Z,92.50
2019-01-29T19:00:34.647Z,92.70
2019-01-29T19:03:04.127Z,92.70
2019-01-29T19:05:33.194Z,92.70
2019-01-29T19:08:02.404Z,92.60
2019-01-29T19:10:31.430Z,92.70
2019-01-29T19:13:00.739Z,93.00
2019-01-29T19:15:30.008Z,92.70
2019-01-29T19:17:59.354Z,92.80
2019-01-29T19:20:28.667Z,92.70
2019-01-29T19:22:58.096Z,92.80
2019-01-29T19:25:27.624Z,92.70
2019-01-29T19:27:57.111Z,92.60
2019-01-29T19:30:31.778Z,92.80
2019-01-29T19:33:02.921Z,92.90
2019-01-29T19:35:32.512Z,92.90
2019-01-29T19:38:01.560Z,93.10
2019-01-29T19:40:31.062Z,93.30
2019-01-29T19:43:00.456Z,93.30
2019-01-29T19:45:32.427Z,93.40
2019-01-29T19:48:01.887Z,93.50
2019-01-29T19:50:32.868Z,93.60
2019-01-29T19:53:02.218Z,93.80
2019-01-29T19:55:32.009Z,94.00
2019-01-29T19:58:08.839Z,93.90
2019-01-29T20:00:38.028Z,94.10
2019-01-29T20:03:07.905Z,94.30
2019-01-29T20:05:37.548Z,94.50
2019-01-29T20:08:07.050Z,94.50
2019-01-29T20:10:37.115Z,94.80
2019-01-29T20:13:07.589Z,94.90
2019-01-29T20:15:37.081Z,95.00
2019-01-29T20:18:06.397Z,94.90
2019-01-29T20:20:40.224Z,95.10
2019-01-29T20:23:09.590Z,95.20
2019-01-29T20:25:39.049Z,95.30
2019-01-29T20:28:08.086Z,95.40
2019-01-29T20:30:39.312Z,95.30
2019-01-29T20:33:11.225Z,95.40
2019-01-29T20:35:40.248Z,95.50
2019-01-29T20:38:09.071Z,95.50
2019-01-29T20:40:38.140Z,95.40
2019-01-29T20:43:06.740Z,95.50
2019-01-29T20:45:35.499Z,95.60
2019-01-29T20:48:04.202Z,95.50
2019-01-29T20:50:37.457Z,95.60
2019-01-29T20:53:06.081Z,95.70
2019-01-29T20:55:34.527Z,95.90
2019-01-29T20:58:03.205Z,95.80
2019-01-29T21:00:34.318Z,95.80
2019-01-29T21:03:03.016Z,95.90
2019-01-29T21:05:31.703Z,96.00
2019-01-29T21:08:00.683Z,95.90
2019-01-29T21:10:29.572Z,95.80
2019-01-29T21:12:58.394Z,95.50
2019-01-29T21:15:37.575Z,95.50
2019-01-29T21:17:58.543Z,95.60
2019-01-29T21:20:29.310Z,95.70
2019-01-29T21:22:58.357Z,95.60
2019-01-29T21:25:26.853Z,95.70
2019-01-29T21:27:55.654Z,95.80
2019-01-29T21:30:29.857Z,95.70
2019-01-29T21:32:58.512Z,95.70
2019-01-29T21:35:27.422Z,95.80
2019-01-29T21:37:56.004Z,95.70
2019-01-29T21:40:24.646Z,95.60
2019-01-29T21:42:53.067Z,95.80
2019-01-29T21:45:22.955Z,95.80
2019-01-29T21:47:52.605Z,95.80
2019-01-29T21:50:29.494Z,95.70
2019-01-29T21:52:57.985Z,96.10
2019-01-29T21:55:26.901Z,96.20
2019-01-29T21:57:55.493Z,96.30
2019-01-29T22:00:32.527Z,96.40
2019-01-29T22:03:01.226Z,96.30
2019-01-29T22:05:29.934Z,96.30
2019-01-29T22:07:58.355Z,96.60
2019-01-29T22:10:26.941Z,96.50
2019-01-29T22:12:55.423Z,96.50
2019-01-29T22:15:25.321Z,96.40
2019-01-29T22:17:54.084Z,96.50
2019-01-29T22:20:26.025Z,96.40
2019-01-29T22:22:55.044Z,96.60
2019-01-29T22:25:24.880Z,96.60
2019-01-29T22:27:53.562Z,96.60
2019-01-29T22:30:30.299Z,96.60
2019-01-29T22:32:58.949Z,96.80
2019-01-29T22:35:27.659Z,96.70
2019-01-29T22:37:56.378Z,96.70
2019-01-29T22:40:29.933Z,96.80
2019-01-29T22:42:59.833Z,96.90
2019-01-29T22:45:28.389Z,97.20
2019-01-29T22:47:56.910Z,97.00
2019-01-29T22:50:34.398Z,97.10
2019-01-29T22:53:03.059Z,97.10
2019-01-29T22:55:31.470Z,97.30
2019-01-29T22:57:59.898Z,97.50
2019-01-29T23:00:51.160Z,97.40
2019-01-29T23:03:44.412Z,97.40
2019-01-29T23:06:35.393Z,97.20
2019-01-29T23:09:07.599Z,97.20
2019-01-29T23:11:36.005Z,97.10
2019-01-29T23:14:05.266Z,97.10
2019-01-29T23:16:33.751Z,97.00
2019-01-29T23:19:02.179Z,97.20
2019-01-29T23:21:30.847Z,97.20
2019-01-29T23:23:59.274Z,97.20
2019-01-29T23:26:27.942Z,97.20
2019-01-29T23:28:56.611Z,97.40
2019-01-29T23:31:25.025Z,97.90
2019-01-29T23:33:53.764Z,98.10
2019-01-29T23:36:22.161Z,98.30
2019-01-29T23:38:50.604Z,98.50
2019-01-29T23:41:19.273Z,98.50
2019-01-29T23:43:47.730Z,98.50
2019-01-29T23:46:16.386Z,98.60
2019-01-29T23:48:44.803Z,98.60
2019-01-29T23:51:13.218Z,98.70
2019-01-29T23:53:41.693Z,98.80
2019-01-29T23:56:10.389Z,98.60
2019-01-29T23:58:38.871Z,98.50
